createdAt,value
2023-05-09T00:01:31.645Z,7.41
2023-05-09T00:04:00.313Z,7.03
2023-05-09T00:06:28.380Z,6.65
2023-05-09T00:08:56.853Z,7.60
2023-05-09T00:11:25.327Z,7.41
2023-05-09T00:13:53.664Z,6.84
2023-05-09T00:16:24.117Z,6.65
2023-05-09T00:18:53.445Z,7.03
2023-05-09T00:21:22.297Z,7.03
2023-05-09T00:23:52.160Z,7.41
2023-05-09T00:26:22.424Z,7.03
2023-05-09T00:28:52.164Z,5.70
2023-05-09T00:31:22.058Z,6.84
2023-05-09T00:33:54.191Z,6.65
2023-05-09T00:36:23.731Z,6.46
2023-05-09T00:38:51.977Z,7.22
2023-05-09T00:41:21.550Z,6.65
2023-05-09T00:43:48.788Z,7.22
2023-05-09T00:46:17.419Z,6.84
2023-05-09T00:48:46.652Z,6.65
2023-05-09T00:51:14.648Z,6.27
2023-05-09T00:53:42.557Z,6.46
2023-05-09T00:56:12.546Z,6.65
2023-05-09T00:58:39.346Z,6.65
2023-05-09T01:01:11.381Z,6.65
2023-05-09T01:03:42.279Z,6.46
2023-05-09T01:06:24.581Z,5.70
2023-05-09T01:09:29.415Z,6.08
2023-05-09T01:12:11.653Z,6.08
2023-05-09T01:15:08.498Z,6.65
2023-05-09T01:18:33.413Z,6.84
2023-05-09T01:21:11.919Z,7.03
2023-05-09T01:23:44.403Z,6.65
2023-05-09T01:26:54.450Z,6.27
2023-05-09T01:29:44.681Z,6.84
2023-05-09T01:32:24.851Z,6.84
2023-05-09T01:35:02.609Z,5.70
2023-05-09T01:37:36.544Z,6.65
2023-05-09T01:40:14.642Z,5.89
2023-05-09T01:43:07.292Z,5.51
2023-05-09T01:45:39.443Z,6.84
2023-05-09T01:48:12.893Z,6.27
2023-05-09T01:50:45.632Z,6.08
2023-05-09T01:53:18.090Z,6.46
2023-05-09T01:55:51.846Z,6.08
2023-05-09T01:58:25.310Z,6.84
2023-05-09T02:00:55.439Z,6.08
2023-05-09T02:03:26.917Z,6.27
2023-05-09T02:05:57.205Z,6.08
2023-05-09T02:08:27.922Z,6.08
2023-05-09T02:10:57.936Z,6.08
2023-05-09T02:13:27.787Z,6.46
2023-05-09T02:15:58.353Z,6.08
2023-05-09T02:18:29.379Z,5.32
2023-05-09T02:20:59.313Z,5.89
2023-05-09T02:23:30.537Z,5.89
2023-05-09T02:26:02.145Z,5.70
2023-05-09T02:28:32.956Z,6.46
2023-05-09T02:31:09.158Z,6.08
2023-05-09T02:33:41.393Z,5.51
2023-05-09T02:36:14.217Z,5.51
2023-05-09T02:38:45.908Z,7.22
2023-05-09T02:41:16.735Z,5.89
2023-05-09T02:43:46.650Z,6.08
2023-05-09T02:46:16.515Z,5.51
2023-05-09T02:48:46.386Z,6.27
2023-05-09T02:51:16.308Z,5.70
2023-05-09T02:53:46.130Z,5.51
2023-05-09T02:56:16.130Z,6.27
2023-05-09T02:58:51.372Z,5.89
2023-05-09T03:01:20.877Z,6.27
2023-05-09T03:03:48.858Z,5.89
2023-05-09T03:06:17.180Z,5.51
2023-05-09T03:08:45.626Z,5.70
2023-05-09T03:11:14.301Z,4.94
2023-05-09T03:13:42.459Z,6.08
2023-05-09T03:16:15.011Z,4.56
2023-05-09T03:18:45.056Z,6.08
2023-05-09T03:21:14.937Z,6.27
2023-05-09T03:23:45.001Z,5.89
2023-05-09T03:26:14.817Z,5.89
2023-05-09T03:28:46.363Z,5.51
2023-05-09T03:31:16.440Z,5.70
2023-05-09T03:33:46.259Z,5.32
2023-05-09T03:36:16.129Z,6.46
2023-05-09T03:38:45.968Z,5.89
2023-05-09T03:41:18.617Z,5.89
2023-05-09T03:43:48.375Z,5.89
2023-05-09T03:46:18.172Z,6.08
2023-05-09T03:48:47.950Z,6.08
2023-05-09T03:51:16.397Z,6.08
2023-05-09T03:53:49.518Z,5.51
2023-05-09T03:56:19.149Z,5.51
2023-05-09T03:58:48.240Z,5.89
2023-05-09T04:01:16.510Z,5.32
2023-05-09T04:03:44.561Z,5.32
2023-05-09T04:06:13.170Z,5.70
2023-05-09T04:08:42.455Z,5.51
2023-05-09T04:11:09.925Z,5.13
2023-05-09T04:13:38.398Z,6.08
2023-05-09T04:16:07.243Z,5.89
2023-05-09T04:18:35.063Z,5.51
2023-05-09T04:21:03.579Z,5.70
2023-05-09T04:23:32.028Z,5.51
2023-05-09T04:26:00.899Z,4.75
2023-05-09T04:28:28.639Z,5.89
2023-05-09T04:30:57.356Z,5.70
2023-05-09T04:33:25.666Z,6.27
2023-05-09T04:35:54.463Z,5.89
2023-05-09T04:38:24.513Z,6.08
2023-05-09T04:40:54.457Z,6.46
2023-05-09T04:43:26.413Z,5.51
2023-05-09T04:45:55.690Z,5.32
2023-05-09T04:48:24.134Z,6.08
2023-05-09T04:50:52.627Z,6.08
2023-05-09T04:53:21.067Z,6.65
2023-05-09T04:55:49.441Z,6.08
2023-05-09T04:58:17.925Z,6.46
2023-05-09T05:00:46.647Z,5.89
2023-05-09T05:03:14.800Z,7.03
2023-05-09T05:05:43.359Z,6.08
2023-05-09T05:08:11.654Z,6.08
2023-05-09T05:10:40.142Z,6.65
2023-05-09T05:13:08.494Z,6.08
2023-05-09T05:15:36.978Z,5.51
2023-05-09T05:18:05.846Z,6.84
2023-05-09T05:20:34.501Z,6.08
2023-05-09T05:23:02.411Z,6.27
2023-05-09T05:25:31.349Z,6.27
2023-05-09T05:27:59.465Z,6.84
2023-05-09T05:30:27.961Z,6.27
2023-05-09T05:32:56.180Z,6.84
2023-05-09T05:35:24.856Z,6.27
2023-05-09T05:37:53.078Z,6.08
2023-05-09T05:40:21.499Z,6.46
2023-05-09T05:42:49.962Z,6.65
2023-05-09T05:45:18.484Z,6.65
2023-05-09T05:47:46.789Z,6.84
2023-05-09T05:50:15.298Z,6.65
2023-05-09T05:52:43.692Z,6.27
2023-05-09T05:55:12.360Z,5.70
2023-05-09T05:57:40.733Z,6.46
2023-05-09T06:00:11.307Z,6.27
2023-05-09T06:02:45.020Z,6.27
2023-05-09T06:05:15.021Z,5.70
2023-05-09T06:07:44.351Z,5.89
2023-05-09T06:10:11.733Z,5.89
2023-05-09T06:12:40.266Z,5.51
2023-05-09T06:15:09.223Z,5.89
2023-05-09T06:17:37.069Z,6.27
2023-05-09T06:20:06.927Z,6.08
2023-05-09T06:22:33.924Z,5.89
2023-05-09T06:25:02.276Z,5.89
2023-05-09T06:27:30.900Z,6.46
2023-05-09T06:29:59.181Z,5.89
2023-05-09T06:32:27.829Z,5.51
2023-05-09T06:34:56.037Z,6.08
2023-05-09T06:37:24.363Z,5.32
2023-05-09T06:39:52.868Z,6.08
2023-05-09T06:42:21.538Z,5.51
2023-05-09T06:44:49.734Z,5.51
2023-05-09T06:47:18.045Z,5.70
2023-05-09T06:49:46.417Z,5.32
2023-05-09T06:52:15.793Z,6.27
2023-05-09T06:54:43.468Z,5.32
2023-05-09T06:57:11.868Z,5.70
2023-05-09T06:59:40.328Z,5.51
2023-05-09T07:02:09.134Z,6.27
2023-05-09T07:04:37.340Z,5.51
2023-05-09T07:07:06.030Z,6.08
2023-05-09T07:09:33.845Z,6.08
2023-05-09T07:12:02.656Z,5.89
2023-05-09T07:14:30.623Z,6.46
2023-05-09T07:17:13.650Z,5.51
2023-05-09T07:19:48.536Z,5.13
2023-05-09T07:22:18.421Z,6.08
2023-05-09T07:24:48.287Z,6.08
2023-05-09T07:27:18.085Z,6.27
2023-05-09T07:29:49.153Z,6.65
2023-05-09T07:32:21.962Z,5.89
2023-05-09T07:34:51.831Z,5.70
2023-05-09T07:37:21.587Z,5.89
2023-05-09T07:39:52.009Z,5.51
2023-05-09T07:42:22.183Z,5.89
2023-05-09T07:44:52.050Z,6.27
2023-05-09T07:47:21.946Z,5.70
2023-05-09T07:49:51.797Z,5.51
2023-05-09T07:52:21.598Z,5.51
2023-05-09T07:54:51.410Z,5.70
2023-05-09T07:57:21.317Z,4.94
2023-05-09T07:59:51.216Z,5.51
2023-05-09T08:02:21.003Z,5.51
2023-05-09T08:04:50.840Z,5.89
2023-05-09T08:07:21.222Z,5.13
2023-05-09T08:09:51.015Z,5.51
2023-05-09T08:12:20.875Z,5.13
2023-05-09T08:14:50.775Z,5.51
2023-05-09T08:17:20.718Z,5.70
2023-05-09T08:19:50.437Z,5.32
2023-05-09T08:22:20.998Z,4.94
2023-05-09T08:24:50.862Z,5.32
2023-05-09T08:27:20.667Z,5.13
2023-05-09T08:29:50.523Z,5.13
2023-05-09T08:32:20.472Z,5.13
2023-05-09T08:34:50.428Z,5.32
2023-05-09T08:37:20.203Z,4.94
2023-05-09T08:39:49.952Z,5.13
2023-05-09T08:42:24.791Z,5.70
2023-05-09T08:44:56.404Z,4.94
2023-05-09T08:47:26.809Z,5.51
2023-05-09T08:49:56.967Z,5.70
2023-05-09T08:52:26.736Z,4.75
2023-05-09T08:54:57.312Z,5.32
2023-05-09T08:57:31.829Z,4.37
2023-05-09T08:59:59.804Z,5.32
2023-05-09T09:02:27.098Z,4.94
2023-05-09T09:04:56.445Z,5.51
2023-05-09T09:07:28.379Z,4.75
2023-05-09T09:10:03.101Z,4.56
2023-05-09T09:12:34.889Z,5.32
2023-05-09T09:15:09.366Z,4.75
2023-05-09T09:17:42.751Z,4.94
2023-05-09T09:20:14.569Z,5.13
2023-05-09T09:22:47.827Z,4.75
2023-05-09T09:25:17.847Z,4.56
2023-05-09T09:27:47.691Z,5.13
2023-05-09T09:30:18.358Z,4.56
2023-05-09T09:32:46.062Z,4.56
2023-05-09T09:35:14.358Z,4.56
2023-05-09T09:37:43.631Z,4.56
2023-05-09T09:40:14.474Z,4.56
2023-05-09T09:42:48.065Z,4.37
2023-05-09T09:45:20.304Z,4.75
2023-05-09T09:47:50.312Z,4.75
2023-05-09T09:50:23.137Z,4.94
2023-05-09T09:52:56.439Z,5.13
2023-05-09T09:55:26.710Z,5.13
2023-05-09T09:57:56.420Z,5.13
2023-05-09T10:00:28.747Z,4.75
2023-05-09T10:03:00.891Z,4.56
2023-05-09T10:05:34.427Z,6.27
2023-05-09T10:08:07.393Z,5.89
2023-05-09T10:10:38.297Z,5.13
2023-05-09T10:13:11.994Z,4.37
2023-05-09T10:15:53.029Z,5.32
2023-05-09T10:18:34.558Z,5.70
2023-05-09T10:21:07.997Z,5.13
2023-05-09T10:23:42.933Z,4.56
2023-05-09T10:26:31.587Z,5.32
2023-05-09T10:29:08.056Z,4.94
2023-05-09T10:31:41.038Z,4.37
2023-05-09T10:34:13.154Z,5.32
2023-05-09T10:36:44.994Z,5.70
2023-05-09T10:39:16.022Z,6.27
2023-05-09T10:41:44.143Z,5.89
2023-05-09T10:44:11.560Z,5.70
2023-05-09T10:46:40.120Z,5.89
2023-05-09T10:49:08.704Z,4.56
2023-05-09T10:51:36.679Z,5.70
2023-05-09T10:54:16.218Z,5.32
2023-05-09T10:56:45.954Z,5.32
2023-05-09T10:59:36.297Z,5.70
2023-05-09T11:02:13.335Z,5.13
2023-05-09T11:04:44.808Z,5.51
2023-05-09T11:07:26.816Z,5.32
2023-05-09T11:10:18.034Z,5.32
2023-05-09T11:13:00.818Z,5.13
2023-05-09T11:15:29.006Z,5.32
2023-05-09T11:18:12.275Z,5.32
2023-05-09T11:20:49.268Z,5.32
2023-05-09T11:23:21.378Z,5.32
2023-05-09T11:25:50.920Z,5.51
2023-05-09T11:28:31.168Z,5.13
2023-05-09T11:31:16.936Z,4.75
2023-05-09T11:33:56.335Z,5.32
2023-05-09T11:36:35.522Z,5.89
2023-05-09T11:39:10.604Z,5.51
2023-05-09T11:41:43.895Z,5.32
2023-05-09T11:44:17.155Z,4.94
2023-05-09T11:46:48.424Z,4.94
2023-05-09T11:49:19.675Z,4.37
2023-05-09T11:51:49.567Z,5.13
2023-05-09T11:54:19.325Z,5.51
2023-05-09T11:56:49.231Z,4.75
2023-05-09T11:59:20.351Z,5.51
2023-05-09T12:01:50.203Z,5.32
2023-05-09T12:04:20.085Z,5.70
2023-05-09T12:06:49.950Z,5.32
2023-05-09T12:09:20.028Z,5.13
2023-05-09T12:11:50.322Z,5.89
2023-05-09T12:14:34.815Z,6.27
2023-05-09T12:17:05.236Z,4.75
2023-05-09T12:19:36.787Z,5.32
2023-05-09T12:22:06.939Z,5.13
2023-05-09T12:24:37.768Z,5.32
2023-05-09T12:27:08.022Z,5.51
2023-05-09T12:29:40.371Z,5.13
2023-05-09T12:32:10.508Z,4.94
2023-05-09T12:34:41.997Z,4.94
2023-05-09T12:37:18.024Z,5.32
2023-05-09T12:40:04.936Z,5.89
2023-05-09T12:42:34.290Z,5.32
2023-05-09T12:45:08.435Z,5.32
2023-05-09T12:47:39.425Z,5.13
2023-05-09T12:50:12.364Z,5.13
2023-05-09T12:53:01.920Z,5.70
2023-05-09T12:55:32.794Z,4.56
2023-05-09T12:58:03.772Z,5.70
2023-05-09T13:00:45.643Z,5.89
2023-05-09T13:03:32.816Z,5.51
2023-05-09T13:06:04.716Z,6.84
2023-05-09T13:08:34.479Z,5.32
2023-05-09T13:11:15.402Z,5.89
2023-05-09T13:13:46.219Z,5.51
2023-05-09T13:16:17.794Z,5.32
2023-05-09T13:18:47.917Z,5.13
2023-05-09T13:21:17.742Z,5.89
2023-05-09T13:23:49.953Z,5.70
2023-05-09T13:26:21.201Z,5.51
2023-05-09T13:28:51.008Z,5.13
2023-05-09T13:31:21.454Z,5.70
2023-05-09T13:33:52.103Z,5.32
2023-05-09T13:36:22.212Z,5.32
2023-05-09T13:38:52.126Z,5.13
2023-05-09T13:41:23.676Z,4.94
2023-05-09T13:43:53.624Z,5.51
2023-05-09T13:46:23.472Z,5.13
2023-05-09T13:48:53.299Z,5.51
2023-05-09T13:51:23.611Z,4.94
2023-05-09T13:53:53.369Z,5.13
2023-05-09T13:56:23.191Z,4.94
2023-05-09T13:58:53.028Z,4.94
2023-05-09T14:01:23.417Z,4.94
2023-05-09T14:03:54.114Z,4.94
2023-05-09T14:06:24.006Z,5.13
2023-05-09T14:08:54.560Z,5.13
2023-05-09T14:11:25.587Z,4.37
2023-05-09T14:13:55.933Z,4.56
2023-05-09T14:16:24.570Z,4.37
2023-05-09T14:18:52.871Z,5.51
2023-05-09T14:21:21.390Z,4.37
2023-05-09T14:23:51.355Z,4.75
2023-05-09T14:26:19.178Z,4.94
2023-05-09T14:28:46.676Z,4.75
2023-05-09T14:31:15.648Z,4.94
2023-05-09T14:33:43.625Z,4.94
2023-05-09T14:36:12.604Z,5.13
2023-05-09T14:38:41.312Z,4.94
2023-05-09T14:41:09.103Z,5.51
2023-05-09T14:43:37.279Z,5.13
2023-05-09T14:46:06.491Z,5.13
2023-05-09T14:48:34.496Z,5.32
2023-05-09T14:51:03.167Z,4.94
2023-05-09T14:53:31.589Z,4.75
2023-05-09T14:55:59.505Z,4.94
2023-05-09T14:58:30.808Z,5.13
2023-05-09T15:00:59.728Z,4.75
2023-05-09T15:03:28.749Z,5.13
2023-05-09T15:05:58.526Z,4.56
2023-05-09T15:08:28.352Z,5.13
2023-05-09T15:10:58.185Z,4.94
2023-05-09T15:13:28.041Z,5.70
2023-05-09T15:15:58.031Z,4.75
2023-05-09T15:18:28.796Z,4.94
2023-05-09T15:20:58.740Z,4.56
2023-05-09T15:23:28.545Z,4.94
2023-05-09T15:25:56.969Z,4.56
2023-05-09T15:28:25.471Z,5.32
2023-05-09T15:30:54.191Z,4.75
2023-05-09T15:33:22.145Z,4.94
2023-05-09T15:35:50.797Z,4.75
2023-05-09T15:38:19.036Z,4.94
2023-05-09T15:40:47.749Z,5.32
2023-05-09T15:43:16.139Z,5.70
2023-05-09T15:45:47.284Z,4.94
2023-05-09T15:48:16.651Z,4.18
2023-05-09T15:50:45.032Z,4.94
2023-05-09T15:53:12.513Z,4.56
2023-05-09T15:55:41.033Z,4.37
2023-05-09T15:58:11.036Z,4.37
2023-05-09T16:00:40.982Z,4.56
2023-05-09T16:03:10.950Z,4.75
2023-05-09T16:05:41.050Z,4.94
2023-05-09T16:08:11.105Z,4.75
2023-05-09T16:10:41.047Z,4.75
2023-05-09T16:13:10.786Z,4.75
2023-05-09T16:15:40.636Z,4.94
2023-05-09T16:18:10.886Z,4.75
2023-05-09T16:20:38.982Z,4.94
2023-05-09T16:23:07.283Z,5.51
2023-05-09T16:25:35.766Z,4.56
2023-05-09T16:28:04.917Z,5.32
2023-05-09T16:30:32.744Z,4.94
2023-05-09T16:33:00.953Z,5.32
2023-05-09T16:35:29.660Z,4.75
2023-05-09T16:37:58.023Z,5.13
2023-05-09T16:40:26.391Z,4.94
2023-05-09T16:42:54.720Z,4.56
2023-05-09T16:45:23.268Z,5.32
2023-05-09T16:47:51.606Z,5.32
2023-05-09T16:50:20.193Z,5.32
2023-05-09T16:52:48.619Z,4.56
2023-05-09T16:55:17.616Z,4.56
2023-05-09T16:57:45.510Z,5.32
2023-05-09T17:00:14.899Z,5.32
2023-05-09T17:02:42.258Z,4.94
2023-05-09T17:05:10.938Z,5.51
2023-05-09T17:07:39.155Z,5.51
2023-05-09T17:10:08.469Z,5.13
2023-05-09T17:12:36.120Z,5.13
2023-05-09T17:15:07.621Z,6.08
2023-05-09T17:17:36.162Z,5.13
2023-05-09T17:20:05.088Z,4.75
2023-05-09T17:22:33.137Z,5.70
2023-05-09T17:25:01.262Z,5.51
2023-05-09T17:27:29.625Z,5.89
2023-05-09T17:29:58.204Z,5.51
2023-05-09T17:32:26.515Z,5.13
2023-05-09T17:34:54.887Z,4.94
2023-05-09T17:37:23.297Z,5.51
2023-05-09T17:39:51.815Z,4.94
2023-05-09T17:42:20.367Z,5.51
2023-05-09T17:44:51.113Z,5.51
2023-05-09T17:47:22.088Z,5.51
2023-05-09T17:49:52.118Z,5.51
2023-05-09T17:52:22.112Z,5.32
2023-05-09T17:54:52.068Z,5.89
2023-05-09T17:57:22.272Z,6.08
2023-05-09T17:59:52.124Z,6.08
2023-05-09T18:02:24.003Z,6.08
2023-05-09T18:04:54.309Z,7.03
2023-05-09T18:07:24.418Z,5.89
2023-05-09T18:09:54.224Z,5.89
2023-05-09T18:12:25.703Z,5.89
2023-05-09T18:14:55.737Z,5.70
2023-05-09T18:17:25.859Z,5.51
2023-05-09T18:19:56.072Z,4.94
2023-05-09T18:22:26.059Z,5.13
2023-05-09T18:24:56.100Z,6.08
2023-05-09T18:27:26.047Z,5.32
2023-05-09T18:29:52.883Z,5.70
2023-05-09T18:32:20.867Z,5.13
2023-05-09T18:34:50.519Z,5.51
2023-05-09T18:37:20.610Z,5.51
2023-05-09T18:39:50.430Z,4.75
2023-05-09T18:42:20.434Z,5.13
2023-05-09T18:44:51.060Z,4.56
2023-05-09T18:47:20.860Z,5.51
2023-05-09T18:49:50.742Z,4.75
2023-05-09T18:52:22.685Z,4.94
2023-05-09T18:54:52.530Z,5.51
2023-05-09T18:57:23.473Z,5.51
2023-05-09T18:59:53.331Z,5.89
2023-05-09T19:02:23.583Z,5.70
2023-05-09T19:04:53.727Z,5.32
2023-05-09T19:07:24.203Z,4.75
2023-05-09T19:09:54.082Z,4.37
2023-05-09T19:12:24.367Z,5.89
2023-05-09T19:14:54.942Z,5.51
2023-05-09T19:17:24.893Z,4.94
2023-05-09T19:19:54.948Z,4.75
2023-05-09T19:22:24.807Z,4.94
2023-05-09T19:24:57.830Z,5.32
2023-05-09T19:27:28.007Z,4.56
2023-05-09T19:29:59.436Z,4.75
2023-05-09T19:32:29.313Z,5.13
2023-05-09T19:34:59.269Z,5.13
2023-05-09T19:37:29.058Z,4.75
2023-05-09T19:39:58.914Z,5.32
2023-05-09T19:42:28.686Z,5.32
2023-05-09T19:44:58.482Z,5.13
2023-05-09T19:47:28.277Z,5.32
2023-05-09T19:49:58.144Z,4.94
2023-05-09T19:52:29.579Z,5.51
2023-05-09T19:54:59.316Z,4.18
2023-05-09T19:57:29.392Z,4.94
2023-05-09T19:59:59.137Z,4.94
2023-05-09T20:02:29.256Z,4.94
2023-05-09T20:04:59.992Z,4.94
2023-05-09T20:07:29.853Z,5.13
2023-05-09T20:09:59.554Z,5.32
2023-05-09T20:12:30.225Z,4.94
2023-05-09T20:15:01.191Z,5.32
2023-05-09T20:17:31.069Z,5.51
2023-05-09T20:20:01.100Z,4.75
2023-05-09T20:22:29.330Z,4.75
2023-05-09T20:24:57.890Z,4.75
2023-05-09T20:27:26.452Z,4.56
2023-05-09T20:29:54.701Z,4.56
2023-05-09T20:32:23.888Z,4.75
2023-05-09T20:34:52.595Z,4.94
2023-05-09T20:37:20.682Z,5.89
2023-05-09T20:39:49.263Z,4.94
2023-05-09T20:42:17.675Z,4.94
2023-05-09T20:44:47.576Z,4.94
2023-05-09T20:47:14.358Z,5.51
2023-05-09T20:49:41.365Z,5.51
2023-05-09T20:52:08.657Z,5.32
2023-05-09T20:54:37.138Z,5.13
2023-05-09T20:57:05.690Z,5.51
2023-05-09T20:59:34.417Z,5.32
2023-05-09T21:02:02.864Z,5.51
2023-05-09T21:04:31.064Z,5.13
2023-05-09T21:06:59.546Z,5.89
2023-05-09T21:09:27.743Z,5.70
2023-05-09T21:11:56.147Z,6.08
2023-05-09T21:14:24.567Z,5.51
2023-05-09T21:16:55.077Z,6.27
2023-05-09T21:19:25.042Z,6.27
2023-05-09T21:21:52.823Z,6.08
2023-05-09T21:24:21.422Z,6.08
2023-05-09T21:26:50.334Z,5.89
2023-05-09T21:29:18.149Z,6.08
2023-05-09T21:31:46.552Z,6.46
2023-05-09T21:34:14.929Z,6.65
2023-05-09T21:36:43.624Z,6.84
2023-05-09T21:39:11.785Z,6.84
2023-05-09T21:41:41.923Z,6.27
2023-05-09T21:44:12.112Z,6.65
2023-05-09T21:46:42.971Z,6.84
2023-05-09T21:49:12.868Z,7.22
2023-05-09T21:51:43.291Z,6.84
2023-05-09T21:54:13.119Z,6.46
2023-05-09T21:56:43.057Z,7.79
2023-05-09T21:59:11.400Z,6.84
2023-05-09T22:01:39.804Z,7.41
2023-05-09T22:04:08.509Z,6.84
2023-05-09T22:06:36.701Z,7.22
2023-05-09T22:09:06.623Z,6.65
2023-05-09T22:11:33.598Z,7.79
2023-05-09T22:14:02.100Z,7.98
2023-05-09T22:16:30.745Z,7.98
2023-05-09T22:18:59.059Z,7.79
2023-05-09T22:21:27.348Z,7.41
2023-05-09T22:23:55.630Z,7.22
2023-05-09T22:26:24.079Z,7.79
2023-05-09T22:28:52.663Z,8.17
2023-05-09T22:31:21.006Z,6.65
2023-05-09T22:33:49.553Z,6.46
2023-05-09T22:36:18.168Z,7.79
2023-05-09T22:38:46.691Z,7.03
2023-05-09T22:41:14.767Z,7.79
2023-05-09T22:43:43.428Z,7.60
2023-05-09T22:46:11.547Z,7.79
2023-05-09T22:48:39.914Z,7.98
2023-05-09T22:51:08.494Z,9.12
2023-05-09T22:53:37.055Z,8.17
2023-05-09T22:56:05.842Z,8.36
2023-05-09T22:58:33.914Z,9.69
2023-05-09T23:01:02.740Z,8.55
2023-05-09T23:03:30.686Z,8.93
2023-05-09T23:05:59.087Z,9.69
2023-05-09T23:08:27.432Z,8.17
2023-05-09T23:10:55.716Z,7.41
2023-05-09T23:13:24.255Z,7.98
2023-05-09T23:15:53.050Z,8.17
2023-05-09T23:18:23.732Z,8.55
2023-05-09T23:20:52.804Z,8.36
2023-05-09T23:23:20.896Z,10.07
2023-05-09T23:25:49.430Z,8.93
2023-05-09T23:28:20.215Z,8.93
2023-05-09T23:30:49.385Z,10.64
2023-05-09T23:33:19.406Z,9.69
2023-05-09T23:35:49.239Z,9.12
2023-05-09T23:38:19.973Z,8.36
2023-05-09T23:40:47.629Z,8.55
2023-05-09T23:43:16.072Z,7.79
2023-05-09T23:45:44.528Z,9.50
2023-05-09T23:48:13.009Z,8.93
2023-05-09T23:50:41.634Z,9.69
2023-05-09T23:53:09.821Z,9.31
2023-05-09T23:55:38.428Z,8.74
2023-05-09T23:58:06.711Z,9.12
